Time;durP1;ratioP1;P1;durP2;ratioP2;P2;SDS_P1;SDS_P2;PMS_P1;PMS_P2;Temp;Humidity;BMP_temperature;BMP_pressure;BME280_temperature;BME280_humidity;BME280_pressure;Samples;Min_cycle;Max_cycle;Signal;HPM_P1;HPM_P2
2023/01/28 00:01:07;;;;;;;7.53;6.60;;;3.30;99.90;;;;;;5074298;28;20478;-70
2023/01/28 00:03:34;;;;;;;7.38;6.68;;;3.30;99.90;;;;;;5074553;28;20047;-70
2023/01/28 00:06:18;;;;;;;8.88;7.97;;;3.20;99.90;;;;;;5074303;28;20032;-70
2023/01/28 00:08:43;;;;;;;7.90;7.20;;;3.20;99.90;;;;;;5074282;28;20071;-70
2023/01/28 00:11:11;;;;;;;6.95;6.35;;;3.20;99.90;;;;;;5074145;28;20068;-70
2023/01/28 00:13:37;;;;;;;8.70;7.88;;;3.20;99.90;;;;;;5074114;28;20037;-70
2023/01/28 00:16:06;;;;;;;8.32;7.47;;;3.20;99.90;;;;;;5074079;28;20037;-70
2023/01/28 00:18:32;;;;;;;9.23;8.43;;;3.20;99.90;;;;;;5072952;28;20059;-70
2023/01/28 00:21:06;;;;;;;8.95;8.05;;;3.20;99.90;;;;;;5073881;28;20115;-70
2023/01/28 00:23:35;;;;;;;8.88;7.88;;;3.20;99.90;;;;;;5074006;28;20417;-70
2023/01/28 00:26:07;;;;;;;8.27;7.57;;;3.20;99.90;;;;;;5073935;28;20115;-70
2023/01/28 00:28:32;;;;;;;8.25;7.20;;;3.30;99.90;;;;;;5073927;28;20045;-70
2023/01/28 00:31:04;;;;;;;8.75;7.78;;;3.20;99.90;;;;;;5073742;28;20055;-70
2023/01/28 00:33:30;;;;;;;8.40;7.60;;;3.20;99.90;;;;;;5073810;28;20032;-70
2023/01/28 00:35:57;;;;;;;8.95;8.10;;;3.20;99.90;;;;;;5073723;28;20508;-70
2023/01/28 00:38:23;;;;;;;10.38;9.38;;;3.20;99.90;;;;;;5073969;28;20130;-70
2023/01/28 00:40:49;;;;;;;9.18;8.35;;;3.20;99.90;;;;;;5073481;28;20048;-70
2023/01/28 00:43:14;;;;;;;8.70;7.90;;;3.20;99.90;;;;;;5073818;28;20086;-70
2023/01/28 00:45:40;;;;;;;9.98;8.98;;;3.20;99.90;;;;;;5075033;28;20474;-70
2023/01/28 00:48:05;;;;;;;12.45;9.32;;;3.20;99.90;;;;;;5073476;28;20040;-70
2023/01/28 00:50:31;;;;;;;10.13;9.13;;;3.20;99.90;;;;;;5073237;28;20127;-70
2023/01/28 00:52:56;;;;;;;8.95;8.15;;;3.20;99.90;;;;;;5073370;28;20083;-70
2023/01/28 00:55:22;;;;;;;10.32;9.32;;;3.20;99.90;;;;;;5073332;28;20037;-70
2023/01/28 00:57:48;;;;;;;9.38;8.32;;;3.10;99.90;;;;;;5073278;28;20072;-70
2023/01/28 01:00:14;;;;;;;8.82;8.02;;;3.10;99.90;;;;;;5073056;28;20080;-70
2023/01/28 01:02:39;;;;;;;9.55;8.63;;;3.10;99.90;;;;;;5073424;28;20079;-70
2023/01/28 01:05:05;;;;;;;11.05;10.00;;;3.10;99.90;;;;;;5073128;28;20466;-70
2023/01/28 01:07:33;;;;;;;9.85;8.90;;;3.00;99.90;;;;;;5073078;28;20052;-70
2023/01/28 01:10:00;;;;;;;8.77;7.97;;;3.10;99.90;;;;;;5072927;28;20485;-70
2023/01/28 01:12:26;;;;;;;7.85;7.13;;;3.10;99.90;;;;;;5072888;28;20047;-70
2023/01/28 01:14:51;;;;;;;8.15;7.35;;;3.10;99.90;;;;;;5073169;28;20127;-70
2023/01/28 01:17:17;;;;;;;7.95;7.15;;;3.00;99.90;;;;;;5072853;28;20501;-70
2023/01/28 01:19:43;;;;;;;8.13;7.32;;;3.00;99.90;;;;;;5056021;28;20049;-71
2023/01/28 01:22:08;;;;;;;8.68;7.80;;;3.00;99.90;;;;;;5072802;28;20044;-72
2023/01/28 01:24:34;;;;;;;9.52;8.40;;;3.00;99.90;;;;;;5072708;28;20038;-72
2023/01/28 01:26:59;;;;;;;8.25;7.43;;;3.00;99.90;;;;;;5072901;28;20052;-72
2023/01/28 01:29:25;;;;;;;7.47;6.55;;;3.00;99.90;;;;;;5073386;28;20448;-72
2023/01/28 01:31:51;;;;;;;7.78;6.97;;;3.00;99.90;;;;;;5072604;28;20460;-72
2023/01/28 01:34:16;;;;;;;7.95;7.05;;;3.00;99.90;;;;;;5072773;28;20131;-72
2023/01/28 01:36:44;;;;;;;8.23;7.43;;;3.00;99.90;;;;;;5072446;28;20049;-72
2023/01/28 01:39:13;;;;;;;8.90;8.00;;;3.00;99.90;;;;;;5072491;28;20040;-72
2023/01/28 01:41:39;;;;;;;9.15;8.10;;;3.00;99.90;;;;;;5072397;28;20037;-72
2023/01/28 01:44:06;;;;;;;8.70;7.82;;;3.00;99.90;;;;;;5072370;28;20036;-72
2023/01/28 01:46:48;;;;;;;8.63;7.47;;;3.00;99.90;;;;;;5072322;28;20443;-72
2023/01/28 01:49:24;;;;;;;8.75;7.85;;;3.00;99.90;;;;;;5072298;28;20048;-72
2023/01/28 01:52:01;;;;;;;10.73;7.90;;;3.00;99.90;;;;;;5072072;28;20044;-72
2023/01/28 01:54:29;;;;;;;14.20;8.50;;;3.00;99.90;;;;;;5055528;28;20052;-72
2023/01/28 01:56:56;;;;;;;8.98;6.80;;;3.00;99.90;;;;;;5072398;28;20084;-72
2023/01/28 01:59:27;;;;;;;8.00;7.15;;;3.00;99.90;;;;;;5071934;28;20405;-72
2023/01/28 02:01:53;;;;;;;7.40;6.70;;;3.00;99.90;;;;;;5072109;28;20497;-72
2023/01/28 02:04:30;;;;;;;7.82;7.03;;;3.00;99.90;;;;;;5072314;28;20501;-72
2023/01/28 02:06:59;;;;;;;7.93;6.90;;;3.00;99.90;;;;;;5073574;28;20044;-72
2023/01/28 02:09:26;;;;;;;7.45;6.38;;;2.90;99.90;;;;;;5073189;28;20044;-72
2023/01/28 02:11:57;;;;;;;7.18;6.00;;;3.00;99.90;;;;;;5072014;28;20114;-72
2023/01/28 02:14:26;;;;;;;7.32;6.15;;;3.00;99.90;;;;;;5071980;28;20494;-72
2023/01/28 02:16:53;;;;;;;6.80;6.10;;;3.00;99.90;;;;;;5072096;28;20498;-72
2023/01/28 02:19:21;;;;;;;6.30;5.70;;;3.00;99.90;;;;;;5071727;28;20520;-72
2023/01/28 02:22:02;;;;;;;8.45;7.20;;;3.00;99.90;;;;;;5072130;28;20048;-72
2023/01/28 02:24:50;;;;;;;9.05;7.15;;;3.00;99.90;;;;;;5071910;28;20048;-72
2023/01/28 02:27:25;;;;;;;8.25;6.32;;;2.90;99.90;;;;;;5073679;28;20044;-72
2023/01/28 02:30:09;;;;;;;7.60;6.80;;;2.90;99.90;;;;;;5071798;28;20505;-72
2023/01/28 02:32:49;;;;;;;7.57;6.88;;;3.00;99.90;;;;;;5072030;28;20043;-72
2023/01/28 02:35:34;;;;;;;7.53;6.32;;;2.90;99.90;;;;;;5071982;28;20044;-72
2023/01/28 02:38:07;;;;;;;7.38;6.68;;;2.90;99.90;;;;;;5071721;28;20520;-72
2023/01/28 02:41:00;;;;;;;8.98;7.90;;;2.90;99.90;;;;;;5071925;28;20528;-72
2023/01/28 02:43:43;;;;;;;7.15;6.47;;;2.90;99.90;;;;;;5075989;28;20068;-72
2023/01/28 02:49:13;;;;;;;7.85;7.05;;;2.90;99.90;;;;;;5075676;28;20044;-71
2023/01/28 02:51:55;;;;;;;7.22;6.53;;;2.90;99.90;;;;;;5075556;28;20051;-72
2023/01/28 02:54:41;;;;;;;8.15;6.75;;;2.90;99.90;;;;;;5075623;28;20055;-72
2023/01/28 02:57:26;;;;;;;7.82;6.65;;;2.90;99.90;;;;;;5075523;28;20101;-72
2023/01/28 03:00:10;;;;;;;9.43;7.72;;;2.90;99.90;;;;;;5077462;28;20498;-72
2023/01/28 03:02:49;;;;;;;6.72;6.05;;;2.90;99.90;;;;;;5075518;28;20580;-72
2023/01/28 03:05:38;;;;;;;6.97;6.28;;;2.90;99.90;;;;;;5075481;28;20040;-72
2023/01/28 03:09:21;;;;;;;8.60;6.55;;;2.90;99.90;;;;;;5075436;28;20044;-72
2023/01/28 03:39:03;;;;;;;7.53;6.75;;;2.90;99.90;;;;;;5075905;28;20052;-72
2023/01/28 03:41:29;;;;;;;7.57;6.88;;;2.90;99.90;;;;;;5074705;28;20041;-72
2023/01/28 03:43:55;;;;;;;8.30;6.72;;;2.90;99.90;;;;;;5074964;28;20040;-72
2023/01/28 03:46:21;;;;;;;8.35;5.55;;;2.90;99.90;;;;;;5074634;28;20494;-72
2023/01/28 03:48:47;;;;;;;6.75;4.82;;;2.90;99.90;;;;;;5074632;28;20098;-72
2023/01/28 03:51:12;;;;;;;6.82;5.70;;;2.90;99.90;;;;;;5074359;28;20040;-72
2023/01/28 03:53:39;;;;;;;5.93;5.32;;;2.90;99.90;;;;;;5074274;28;20047;-72
2023/01/28 03:56:05;;;;;;;6.05;5.53;;;2.90;99.90;;;;;;5074471;28;20052;-72
2023/01/28 03:58:51;;;;;;;9.52;6.15;;;2.90;99.90;;;;;;5074390;28;20044;-72
2023/01/28 04:01:17;;;;;;;7.65;5.78;;;2.90;99.90;;;;;;5074313;28;20048;-72
2023/01/28 04:03:42;;;;;;;7.13;6.18;;;2.90;99.90;;;;;;5075820;28;20045;-72
2023/01/28 04:06:08;;;;;;;7.85;6.82;;;2.90;99.90;;;;;;5074259;28;20037;-72
2023/01/28 04:08:34;;;;;;;7.35;6.60;;;2.90;99.90;;;;;;5074480;28;20091;-72
2023/01/28 04:11:14;;;;;;;7.97;6.70;;;2.90;99.90;;;;;;5074085;28;20493;-72
2023/01/28 04:13:44;;;;;;;6.78;6.07;;;2.90;99.90;;;;;;5074400;28;20123;-72
2023/01/28 04:16:10;;;;;;;8.88;6.60;;;2.90;99.90;;;;;;5074455;28;20404;-72
2023/01/28 04:18:36;;;;;;;8.73;7.20;;;2.90;99.90;;;;;;5074322;28;20048;-72
2023/01/28 04:21:01;;;;;;;9.93;7.13;;;2.90;99.90;;;;;;5073873;28;20420;-72
2023/01/28 04:23:28;;;;;;;8.77;7.15;;;2.90;99.90;;;;;;5074252;28;20047;-72
2023/01/28 04:25:54;;;;;;;9.27;7.93;;;2.90;99.90;;;;;;5073947;28;20036;-72
2023/01/28 04:28:20;;;;;;;8.30;7.50;;;2.90;99.90;;;;;;5057227;28;20033;-72
2023/01/28 04:30:45;;;;;;;8.98;7.97;;;2.90;99.90;;;;;;5074060;28;20087;-72
2023/01/28 04:33:11;;;;;;;7.97;7.03;;;2.90;99.90;;;;;;5073814;28;20470;-72
2023/01/28 04:35:37;;;;;;;7.40;6.70;;;2.90;99.90;;;;;;5074032;28;20040;-72
2023/01/28 04:38:02;;;;;;;8.45;7.22;;;2.90;99.90;;;;;;5073985;28;20401;-72
2023/01/28 04:40:28;;;;;;;9.45;8.27;;;2.90;99.90;;;;;;5073565;28;20119;-72
2023/01/28 04:42:54;;;;;;;9.90;7.65;;;2.90;99.90;;;;;;5073577;28;20485;-72
2023/01/28 04:45:21;;;;;;;8.52;7.63;;;2.90;99.90;;;;;;5073517;28;20036;-72
2023/01/28 04:47:46;;;;;;;8.88;7.65;;;2.90;99.90;;;;;;5073481;28;20047;-72
2023/01/28 04:50:13;;;;;;;10.52;7.90;;;2.90;99.90;;;;;;5073199;28;20044;-72
2023/01/28 04:52:39;;;;;;;8.77;7.88;;;2.90;99.90;;;;;;5073622;28;20044;-72
2023/01/28 04:55:05;;;;;;;10.10;7.80;;;2.90;99.90;;;;;;5074826;28;20036;-72
2023/01/28 04:57:31;;;;;;;9.27;8.13;;;2.90;99.90;;;;;;5073531;28;20040;-72
2023/01/28 04:59:56;;;;;;;8.30;7.50;;;2.90;99.90;;;;;;5073096;28;20499;-72
2023/01/28 05:02:22;;;;;;;8.07;6.93;;;2.90;99.90;;;;;;5074720;28;20032;-72
2023/01/28 05:04:47;;;;;;;8.57;7.68;;;2.90;99.90;;;;;;5073707;28;20071;-72
2023/01/28 05:07:13;;;;;;;8.55;7.65;;;2.90;99.90;;;;;;5073104;28;20071;-72
2023/01/28 05:09:38;;;;;;;8.45;7.50;;;2.90;99.90;;;;;;5074220;28;20044;-72
2023/01/28 05:12:04;;;;;;;8.60;7.70;;;2.90;99.90;;;;;;5072971;28;20043;-72
2023/01/28 05:14:30;;;;;;;8.23;7.43;;;2.90;99.90;;;;;;5072928;28;20085;-72
2023/01/28 05:16:55;;;;;;;10.48;8.20;;;2.80;99.90;;;;;;5073126;28;20040;-72
2023/01/28 05:19:21;;;;;;;9.80;8.80;;;2.80;99.90;;;;;;5072723;28;20489;-72
2023/01/28 05:21:46;;;;;;;9.40;8.50;;;2.80;99.90;;;;;;5073073;28;20036;-72
2023/01/28 05:24:12;;;;;;;10.43;8.45;;;2.80;99.90;;;;;;5073046;28;20047;-72
2023/01/28 05:26:37;;;;;;;8.70;7.85;;;2.80;99.90;;;;;;5072701;28;20485;-72
2023/01/28 05:29:03;;;;;;;9.38;7.95;;;2.80;99.90;;;;;;5072842;28;20045;-71
2023/01/28 05:31:29;;;;;;;9.05;8.07;;;2.80;99.90;;;;;;5072620;28;20509;-71
2023/01/28 05:33:54;;;;;;;10.07;7.97;;;2.80;99.90;;;;;;5072633;28;20072;-72
2023/01/28 05:36:20;;;;;;;7.80;7.00;;;2.80;99.90;;;;;;5072770;28;20067;-72
2023/01/28 05:38:46;;;;;;;9.98;8.07;;;2.80;99.90;;;;;;5072598;28;20044;-72
2023/01/28 05:41:11;;;;;;;8.07;7.00;;;2.80;99.90;;;;;;5072401;28;20098;-72
2023/01/28 05:43:37;;;;;;;7.22;6.40;;;2.70;99.90;;;;;;5072687;28;20048;-72
2023/01/28 05:46:02;;;;;;;10.10;6.72;;;2.70;99.90;;;;;;5073895;28;20480;-72
2023/01/28 05:48:28;;;;;;;7.55;6.75;;;2.80;99.90;;;;;;5072312;28;20040;-72
2023/01/28 05:50:54;;;;;;;7.05;6.35;;;2.70;99.90;;;;;;5073226;28;20047;-72
2023/01/28 05:53:19;;;;;;;7.03;6.32;;;2.70;99.90;;;;;;5072182;28;20071;-72
2023/01/28 05:55:50;;;;;;;7.53;6.53;;;2.70;99.90;;;;;;5072191;28;20075;-72
2023/01/28 05:58:16;;;;;;;7.40;6.60;;;2.70;99.90;;;;;;5072202;28;20041;-72
2023/01/28 06:00:42;;;;;;;8.10;7.30;;;2.70;99.90;;;;;;5071936;28;20033;-72
2023/01/28 06:03:07;;;;;;;8.52;6.80;;;2.60;99.90;;;;;;5072060;28;20101;-72
2023/01/28 06:05:33;;;;;;;8.68;7.45;;;2.60;99.90;;;;;;5072032;28;20032;-72
2023/01/28 06:07:58;;;;;;;10.25;7.85;;;2.60;99.90;;;;;;5072041;28;20037;-72
2023/01/28 06:10:24;;;;;;;10.43;8.20;;;2.60;99.90;;;;;;5071889;28;20056;-72
2023/01/28 06:12:50;;;;;;;9.07;8.05;;;2.60;99.90;;;;;;5071993;28;20052;-72
2023/01/28 06:15:15;;;;;;;8.52;7.72;;;2.50;99.90;;;;;;5071920;28;20102;-72
2023/01/28 06:17:41;;;;;;;10.55;9.20;;;2.50;99.90;;;;;;5072165;28;20050;-72
2023/01/28 06:20:07;;;;;;;9.63;8.73;;;2.60;99.90;;;;;;5071780;28;20053;-72
2023/01/28 06:22:33;;;;;;;8.85;7.95;;;2.50;99.90;;;;;;5071919;28;20154;-72
2023/01/28 06:24:59;;;;;;;10.65;8.45;;;2.50;99.90;;;;;;5072107;28;20127;-72
2023/01/28 06:27:24;;;;;;;9.82;8.82;;;2.50;99.90;;;;;;5072127;28;20544;-72
2023/01/28 06:29:50;;;;;;;9.85;8.85;;;2.60;99.90;;;;;;5071771;28;20404;-72
2023/01/28 06:32:15;;;;;;;9.18;7.57;;;2.60;99.90;;;;;;5071820;28;20036;-72
2023/01/28 06:34:41;;;;;;;10.27;8.85;;;2.50;99.90;;;;;;5073022;28;20040;-72
2023/01/28 06:37:07;;;;;;;10.20;9.20;;;2.50;99.90;;;;;;5073276;28;20428;-72
2023/01/28 06:39:32;;;;;;;10.02;9.02;;;2.50;99.90;;;;;;5071766;28;20075;-71
2023/01/28 06:41:58;;;;;;;10.45;9.38;;;2.50;99.90;;;;;;5071622;28;20451;-72
2023/01/28 06:44:24;;;;;;;11.18;9.50;;;2.50;99.90;;;;;;5071602;28;20111;-72
2023/01/28 06:46:49;;;;;;;9.85;8.85;;;2.50;99.90;;;;;;5071637;28;20115;-72
2023/01/28 06:49:15;;;;;;;10.80;9.70;;;2.50;99.90;;;;;;5071808;28;20044;-72
2023/01/28 06:51:40;;;;;;;11.48;9.93;;;2.50;99.90;;;;;;5071803;28;20413;-72
2023/01/28 06:54:06;;;;;;;11.77;10.00;;;2.50;99.90;;;;;;5071536;28;20482;-72
2023/01/28 06:56:32;;;;;;;11.52;9.80;;;2.50;99.90;;;;;;5071806;28;20052;-72
2023/01/28 06:58:58;;;;;;;10.60;9.50;;;2.60;99.90;;;;;;5072211;28;20051;-72
2023/01/28 07:01:23;;;;;;;10.90;9.52;;;2.60;99.90;;;;;;5071365;28;20044;-72
2023/01/28 07:03:49;;;;;;;10.85;9.25;;;2.50;99.90;;;;;;5071400;28;20094;-72
2023/01/28 07:06:15;;;;;;;11.65;9.88;;;2.50;99.90;;;;;;5071397;28;20079;-72
2023/01/28 07:08:41;;;;;;;12.43;10.50;;;2.50;99.90;;;;;;5071396;28;20051;-72
2023/01/28 07:11:06;;;;;;;10.52;9.43;;;2.50;99.90;;;;;;5071396;28;20044;-72
2023/01/28 07:13:32;;;;;;;11.57;9.98;;;2.40;99.90;;;;;;5071386;28;20040;-72
2023/01/28 07:15:58;;;;;;;11.85;9.88;;;2.40;99.90;;;;;;5071405;28;20036;-72
2023/01/28 07:18:23;;;;;;;11.05;9.95;;;2.40;99.90;;;;;;5071587;28;20052;-71
2023/01/28 07:20:49;;;;;;;11.13;9.55;;;2.50;99.90;;;;;;5071175;28;20506;-72
2023/01/28 07:23:15;;;;;;;10.63;9.52;;;2.40;99.90;;;;;;5071336;28;20041;-72
2023/01/28 07:25:40;;;;;;;11.32;10.15;;;2.40;99.90;;;;;;5071092;28;20047;-71
2023/01/28 07:28:06;;;;;;;10.77;9.68;;;2.40;99.90;;;;;;5073807;28;20043;-72
2023/01/28 07:30:31;;;;;;;10.45;9.35;;;2.50;99.90;;;;;;5074900;28;20494;-72
2023/01/28 07:32:58;;;;;;;10.20;9.07;;;2.40;99.90;;;;;;5074888;28;20044;-72
2023/01/28 07:35:25;;;;;;;10.48;8.77;;;2.40;99.90;;;;;;5075128;28;20044;-72
2023/01/28 07:37:56;;;;;;;10.38;9.27;;;2.40;99.90;;;;;;5074776;28;20048;-72
2023/01/28 07:40:23;;;;;;;8.93;8.02;;;2.40;99.90;;;;;;5075170;28;20095;-72
2023/01/28 07:42:49;;;;;;;10.05;9.00;;;2.40;99.90;;;;;;5075867;28;20041;-72
2023/01/28 07:45:15;;;;;;;10.23;9.15;;;2.40;99.90;;;;;;5074701;28;20378;-72
2023/01/28 07:47:41;;;;;;;12.48;10.43;;;2.40;99.90;;;;;;5074665;28;20486;-72
2023/01/28 07:50:08;;;;;;;12.40;9.82;;;2.30;99.90;;;;;;5074913;28;20044;-72
2023/01/28 07:52:42;;;;;;;12.88;10.27;;;2.30;99.90;;;;;;5074840;28;20119;-72
2023/01/28 07:55:10;;;;;;;10.50;9.40;;;2.30;99.90;;;;;;5075823;28;20047;-72
2023/01/28 07:57:36;;;;;;;11.82;9.57;;;2.20;99.90;;;;;;5074479;28;20497;-72
2023/01/28 08:00:02;;;;;;;11.45;9.57;;;2.10;99.90;;;;;;5074310;28;20048;-72
2023/01/28 08:02:29;;;;;;;10.35;9.32;;;2.10;99.90;;;;;;5074392;28;20044;-72
2023/01/28 08:04:58;;;;;;;11.60;9.95;;;2.00;99.90;;;;;;5075967;28;20425;-72
2023/01/28 08:07:24;;;;;;;11.52;9.90;;;2.00;99.90;;;;;;5074618;28;20037;-72
2023/01/28 08:09:50;;;;;;;12.13;9.88;;;2.00;99.90;;;;;;5074254;28;20079;-72
2023/01/28 08:12:16;;;;;;;14.05;9.82;;;2.00;99.90;;;;;;5074508;28;20059;-72
2023/01/28 08:14:41;;;;;;;11.57;9.75;;;2.00;99.90;;;;;;5074462;28;20548;-72
2023/01/28 08:17:07;;;;;;;12.45;10.57;;;2.00;99.90;;;;;;5074148;28;20048;-71
2023/01/28 08:19:32;;;;;;;12.07;9.80;;;2.00;99.90;;;;;;5073981;28;20413;-71
2023/01/28 08:21:58;;;;;;;12.77;10.40;;;2.00;99.90;;;;;;5074007;28;20066;-71
2023/01/28 08:24:24;;;;;;;11.45;9.68;;;2.10;99.90;;;;;;5073999;28;20051;-72
2023/01/28 08:26:49;;;;;;;12.88;10.60;;;2.00;99.90;;;;;;5074155;28;20047;-72
2023/01/28 08:29:15;;;;;;;12.20;10.20;;;2.00;99.90;;;;;;5073867;28;20493;-72
2023/01/28 08:31:41;;;;;;;11.75;9.80;;;2.10;99.90;;;;;;5074140;28;20036;-72
2023/01/28 08:34:07;;;;;;;12.80;10.00;;;2.10;99.90;;;;;;5074112;28;20049;-72
2023/01/28 08:36:32;;;;;;;10.95;9.77;;;2.10;99.90;;;;;;5073808;28;20382;-72
2023/01/28 08:38:58;;;;;;;14.30;10.30;;;2.10;99.90;;;;;;5072573;28;20041;-72
2023/01/28 08:41:23;;;;;;;11.57;10.15;;;2.10;99.90;;;;;;5073868;28;20070;-72
2023/01/28 08:43:49;;;;;;;13.55;9.93;;;2.10;99.90;;;;;;5074420;28;20445;-72
2023/01/28 08:46:15;;;;;;;11.18;8.85;;;2.20;99.90;;;;;;5073611;28;20119;-72
2023/01/28 08:48:41;;;;;;;10.65;8.70;;;2.20;99.90;;;;;;5073531;28;20082;-72
2023/01/28 08:51:07;;;;;;;10.38;9.27;;;2.20;99.90;;;;;;5073469;28;20048;-72
2023/01/28 08:53:32;;;;;;;9.70;8.38;;;2.30;99.90;;;;;;5073441;28;20547;-72
2023/01/28 08:55:58;;;;;;;10.98;9.30;;;2.30;99.90;;;;;;5073647;28;20040;-72
2023/01/28 08:58:23;;;;;;;9.30;8.38;;;2.30;99.90;;;;;;5073561;28;20480;-71
2023/01/28 09:00:49;;;;;;;8.98;7.68;;;2.30;99.90;;;;;;5073096;28;20040;-71
2023/01/28 09:03:16;;;;;;;8.55;7.60;;;2.30;99.90;;;;;;5073202;28;20044;-71
2023/01/28 09:05:43;;;;;;;10.68;8.05;;;2.40;99.90;;;;;;5056916;28;20131;-71
2023/01/28 09:08:12;;;;;;;8.85;7.82;;;2.40;99.90;;;;;;5073104;28;20123;-72
2023/01/28 09:10:38;;;;;;;8.52;7.25;;;2.40;99.90;;;;;;5072995;28;20049;-72
2023/01/28 09:13:09;;;;;;;8.13;7.28;;;2.50;99.90;;;;;;5073266;28;20056;-72
2023/01/28 09:15:36;;;;;;;9.02;6.78;;;2.60;99.90;;;;;;5073019;28;20048;-72
2023/01/28 09:18:02;;;;;;;8.18;6.90;;;2.70;99.90;;;;;;5072950;28;20076;-72
2023/01/28 09:20:28;;;;;;;8.93;7.10;;;2.80;99.90;;;;;;5073005;28;20091;-72
2023/01/28 09:22:53;;;;;;;7.07;6.10;;;2.80;99.90;;;;;;5073076;28;20036;-75
2023/01/28 09:25:19;;;;;;;8.40;6.75;;;2.90;99.90;;;;;;5073034;28;20509;-72
2023/01/28 09:27:44;;;;;;;7.13;6.43;;;2.90;99.90;;;;;;5072745;28;20047;-72
2023/01/28 09:30:12;;;;;;;8.35;6.82;;;3.10;99.90;;;;;;5072683;28;20070;-72
2023/01/28 09:32:38;;;;;;;8.52;7.63;;;3.10;99.90;;;;;;5072903;28;20079;-71
2023/01/28 09:35:04;;;;;;;8.65;6.60;;;3.20;99.90;;;;;;5072904;28;20528;-73
2023/01/28 09:37:29;;;;;;;6.95;6.25;;;3.20;99.90;;;;;;5072559;28;20485;-72
2023/01/28 09:39:55;;;;;;;8.40;7.40;;;3.20;99.90;;;;;;5072297;28;20044;-72
2023/01/28 09:42:49;;;;;;;8.77;7.28;;;3.20;99.90;;;;;;5072458;28;20068;-72
2023/01/28 09:45:29;;;;;;;10.48;6.88;;;3.20;99.90;;;;;;5072724;28;20501;-72
2023/01/28 09:47:59;;;;;;;7.43;6.63;;;3.20;99.90;;;;;;5072434;28;20051;-72
2023/01/28 09:50:40;;;;;;;8.68;6.95;;;3.20;99.90;;;;;;5071885;28;20509;-72
2023/01/28 09:53:17;;;;;;;7.97;6.95;;;3.10;99.90;;;;;;5072352;28;20044;-72
2023/01/28 09:55:46;;;;;;;7.63;6.10;;;3.20;99.90;;;;;;5072544;28;20091;-72
2023/01/28 09:58:16;;;;;;;7.68;5.63;;;3.10;99.90;;;;;;5072147;28;20040;-72
2023/01/28 10:01:09;;;;;;;6.00;5.40;;;3.10;99.90;;;;;;5072002;28;20052;-72
2023/01/28 10:03:43;;;;;;;7.93;5.77;;;3.20;99.90;;;;;;5072469;28;20079;-71
2023/01/28 10:06:16;;;;;;;7.88;5.80;;;3.20;99.90;;;;;;5072093;28;20451;-72
2023/01/28 10:08:56;;;;;;;6.55;4.32;;;3.30;99.90;;;;;;5072405;28;20045;-72
2023/01/28 10:11:50;;;;;;;7.25;5.10;;;3.30;99.90;;;;;;5071999;28;20505;-71
2023/01/28 10:14:30;;;;;;;9.57;5.90;;;3.40;99.90;;;;;;5072101;28;20087;-72
2023/01/28 10:17:07;;;;;;;6.10;5.15;;;3.50;99.90;;;;;;5072062;28;20121;-72
2023/01/28 10:19:42;;;;;;;7.03;5.32;;;3.60;99.90;;;;;;5071809;28;20056;-72
2023/01/28 10:22:30;;;;;;;6.43;5.70;;;3.80;99.90;;;;;;5072220;28;20054;-72
2023/01/28 10:25:05;;;;;;;6.95;5.22;;;4.00;99.90;;;;;;5065407;28;20052;-72
2023/01/28 10:27:36;;;;;;;8.68;6.38;;;4.00;99.90;;;;;;5072026;28;20481;-72
2023/01/28 10:30:20;;;;;;;6.82;6.13;;;4.00;99.90;;;;;;5071798;28;20044;-72
2023/01/28 10:33:23;;;;;;;7.28;6.07;;;4.00;99.90;;;;;;5072102;28;20497;-72
2023/01/28 10:35:49;;;;;;;7.07;6.38;;;4.00;99.90;;;;;;5069840;28;20139;-72
2023/01/28 10:38:22;;;;;;;7.53;6.30;;;4.00;99.90;;;;;;5072012;28;20586;-71
2023/01/28 10:40:49;;;;;;;8.43;6.28;;;4.10;99.90;;;;;;5071603;28;20048;-71
2023/01/28 10:43:22;;;;;;;8.35;6.80;;;4.00;99.90;;;;;;5071717;28;20048;-71
2023/01/28 10:46:09;;;;;;;9.50;7.30;;;4.00;99.90;;;;;;5071720;28;20436;-71
2023/01/28 10:48:44;;;;;;;8.18;7.30;;;4.10;99.90;;;;;;5071944;28;20545;-72
2023/01/28 10:51:10;;;;;;;7.88;6.82;;;4.10;99.90;;;;;;5071723;28;20071;-72
2023/01/28 10:53:44;;;;;;;8.45;7.32;;;4.00;99.90;;;;;;5071638;28;20501;-71
2023/01/28 10:56:16;;;;;;;8.32;7.38;;;3.90;99.90;;;;;;5071552;28;20404;-71
2023/01/28 10:59:03;;;;;;;9.82;7.72;;;3.80;99.90;;;;;;5071565;28;20044;-71
2023/01/28 11:01:49;;;;;;;9.50;7.40;;;3.80;99.90;;;;;;5071728;28;20052;-71
2023/01/28 11:04:21;;;;;;;9.70;8.30;;;3.80;99.90;;;;;;5075839;28;20048;-71
2023/01/28 11:07:02;;;;;;;9.02;7.13;;;3.80;99.90;;;;;;5076334;28;20044;-71
2023/01/28 11:09:36;;;;;;;7.07;6.28;;;3.80;99.90;;;;;;5075362;28;20102;-71
2023/01/28 11:12:23;;;;;;;9.18;7.00;;;3.90;99.90;;;;;;5075409;28;20137;-71
2023/01/28 11:14:53;;;;;;;8.18;6.65;;;3.90;99.90;;;;;;5075278;28;20500;-71
2023/01/28 11:17:23;;;;;;;7.68;6.88;;;4.00;99.90;;;;;;5075330;28;20390;-75
2023/01/28 11:19:51;;;;;;;8.60;6.05;;;4.00;99.90;;;;;;5075088;28;20044;-72
2023/01/28 11:22:44;;;;;;;8.82;6.50;;;4.10;99.90;;;;;;5075501;28;20044;-73
2023/01/28 11:25:33;;;;;;;7.47;6.40;;;4.30;99.90;;;;;;5073542;28;20057;-74
2023/01/28 11:28:00;;;;;;;10.65;6.55;;;4.40;99.90;;;;;;5075077;28;20046;-72
2023/01/28 11:30:32;;;;;;;8.63;6.93;;;4.90;99.90;;;;;;5074918;28;20043;-72
2023/01/28 11:33:06;;;;;;;7.47;6.63;;;6.30;99.90;;;;;;5074975;28;20409;-72
2023/01/28 11:35:32;;;;;;;8.60;6.53;;;8.30;99.90;;;;;;5074925;28;20043;-72
2023/01/28 11:37:59;;;;;;;10.45;6.90;;;9.80;99.90;;;;;;5076138;28;20036;-72
2023/01/28 11:40:25;;;;;;;8.90;6.78;;;11.30;98.10;;;;;;5074676;28;20054;-72
2023/01/28 11:42:52;;;;;;;7.40;6.57;;;12.00;93.90;;;;;;5075034;28;20058;-73
2023/01/28 11:45:28;;;;;;;8.40;6.30;;;11.80;91.60;;;;;;5074777;28;20040;-72
2023/01/28 11:48:13;;;;;;;10.07;7.00;;;11.00;91.00;;;;;;5074715;28;20040;-72
2023/01/28 11:50:46;;;;;;;10.70;7.20;;;10.10;91.70;;;;;;5074448;28;20048;-73
2023/01/28 11:53:26;;;;;;;9.75;7.78;;;9.50;92.60;;;;;;5074934;28;20127;-73
2023/01/28 11:55:54;;;;;;;11.68;7.55;;;9.30;93.20;;;;;;5074565;28;20511;-73
2023/01/28 11:58:44;;;;;;;9.25;7.15;;;9.80;93.00;;;;;;5074732;28;20048;-73
2023/01/28 12:01:41;;;;;;;10.98;7.80;;;10.70;92.50;;;;;;5074322;28;20131;-72
2023/01/28 12:04:17;;;;;;;9.98;8.00;;;10.90;91.10;;;;;;5075721;28;20047;-72
2023/01/28 12:06:55;;;;;;;8.07;6.25;;;11.20;91.20;;;;;;5074397;28;20489;-72
2023/01/28 12:09:42;;;;;;;9.02;6.65;;;11.60;89.00;;;;;;5057522;28;20045;-72
2023/01/28 12:12:39;;;;;;;7.40;6.60;;;11.60;86.40;;;;;;5074274;28;20083;-72
2023/01/28 12:15:26;;;;;;;7.65;5.97;;;11.00;85.30;;;;;;5074228;28;20041;-72
2023/01/28 12:18:02;;;;;;;7.97;6.55;;;10.60;87.10;;;;;;5074210;28;20040;-72
2023/01/28 12:20:37;;;;;;;7.40;6.38;;;10.20;87.30;;;;;;5074086;28;20044;-72
2023/01/28 12:23:13;;;;;;;7.35;5.88;;;9.90;88.90;;;;;;5074077;28;20120;-72
2023/01/28 12:26:10;;;;;;;7.82;7.03;;;9.50;90.20;;;;;;5074263;28;20040;-73
2023/01/28 12:29:03;;;;;;;8.40;6.72;;;9.00;90.30;;;;;;5074006;28;20066;-72
2023/01/28 12:31:46;;;;;;;12.02;7.47;;;8.60;91.00;;;;;;5074212;28;20044;-72
2023/01/28 12:34:57;;;;;;;13.10;8.70;;;8.20;92.00;;;;;;5074250;28;20062;-72
2023/01/28 12:37:42;;;;;;;14.70;8.80;;;7.90;92.30;;;;;;5073834;28;20040;-72
2023/01/28 12:40:42;;;;;;;14.25;9.57;;;7.50;92.80;;;;;;5073558;28;20417;-72
2023/01/28 12:43:16;;;;;;;13.48;9.93;;;7.20;93.10;;;;;;5073719;28;20078;-72
2023/01/28 12:45:45;;;;;;;15.15;9.15;;;6.90;93.90;;;;;;5073880;28;20101;-72
2023/01/28 12:48:17;;;;;;;14.18;9.02;;;6.80;94.10;;;;;;5073534;28;20037;-72
2023/01/28 12:50:57;;;;;;;14.98;8.82;;;6.90;94.60;;;;;;5073636;28;20146;-72
2023/01/28 12:53:45;;;;;;;14.82;8.13;;;7.60;94.60;;;;;;5073486;28;20049;-73
2023/01/28 12:56:24;;;;;;;13.40;7.93;;;9.60;92.40;;;;;;5073407;28;20052;-72
2023/01/28 12:59:16;;;;;;;15.25;7.63;;;11.90;88.80;;;;;;5073666;28;20086;-72
2023/01/28 13:01:50;;;;;;;10.40;7.70;;;13.30;83.20;;;;;;5073477;28;20044;-72
2023/01/28 13:04:38;;;;;;;14.73;9.30;;;13.30;79.80;;;;;;5073469;28;20048;-72
2023/01/28 13:07:22;;;;;;;24.25;9.95;;;13.10;80.30;;;;;;5056517;28;20401;-72
2023/01/28 13:09:57;;;;;;;16.27;10.43;;;13.50;76.60;;;;;;5073120;28;20044;-72
2023/01/28 13:12:24;;;;;;;17.33;9.70;;;14.30;76.50;;;;;;5073311;28;20443;-72
2023/01/28 13:14:50;;;;;;;16.73;10.68;;;14.80;75.70;;;;;;5073020;28;20059;-72
2023/01/28 13:17:31;;;;;;;14.88;9.68;;;15.10;73.10;;;;;;5072999;28;20048;-72
2023/01/28 13:19:58;;;;;;;13.75;9.38;;;14.80;72.10;;;;;;5056060;28;20124;-72
2023/01/28 13:22:35;;;;;;;12.77;8.82;;;13.70;74.10;;;;;;5072868;28;20040;-72
2023/01/28 13:25:28;;;;;;;12.27;8.68;;;13.80;74.60;;;;;;5072233;28;20562;-72
2023/01/28 13:27:57;;;;;;;10.15;7.53;;;14.00;73.00;;;;;;5072815;28;20036;-72
2023/01/28 13:30:27;;;;;;;11.40;8.10;;;14.10;73.50;;;;;;5072617;28;20394;-72
2023/01/28 13:32:59;;;;;;;16.80;9.82;;;13.30;72.90;;;;;;5072689;28;20153;-72
2023/01/28 13:35:51;;;;;;;12.38;7.70;;;12.30;74.60;;;;;;5072908;28;20070;-72
2023/01/28 13:38:19;;;;;;;12.10;8.55;;;11.30;74.60;;;;;;5073805;28;20404;-72
2023/01/28 13:40:54;;;;;;;12.88;8.82;;;10.50;77.70;;;;;;5072410;28;20080;-72
2023/01/28 13:43:41;;;;;;;13.95;9.02;;;9.80;78.50;;;;;;5072549;28;20041;-72